Time;durP1;ratioP1;P1;durP2;ratioP2;P2;SDS_P1;SDS_P2;PMS_P1;PMS_P2;Temp;Humidity;BMP_temperature;BMP_pressure;BME280_temperature;BME280_humidity;BME280_pressure;Samples;Min_cycle;Max_cycle;Signal;HPM_P1;HPM_P2
2022/04/20 00:00:20;;;;;;;5.75;2.60;;;;;;;;;;5008778;28;20041;-83
2022/04/20 00:02:46;;;;;;;8.30;2.67;;;;;;;;;;5007900;28;20434;-84
2022/04/20 00:05:15;;;;;;;6.05;2.42;;;;;;;;;;5008128;28;20044;-82
2022/04/20 00:07:40;;;;;;;7.90;2.67;;;;;;;;;;5023324;28;20041;-83
2022/04/20 00:10:07;;;;;;;6.60;2.58;;;;;;;;;;5024343;28;20450;-83
2022/04/20 00:12:32;;;;;;;5.57;2.78;;;;;;;;;;5023876;28;20389;-85
2022/04/20 00:14:57;;;;;;;5.68;2.58;;;;;;;;;;5008083;28;20040;-84
2022/04/20 00:17:23;;;;;;;6.85;2.42;;;;;;;;;;5007614;28;20057;-83
2022/04/20 00:19:48;;;;;;;6.53;2.50;;;;;;;;;;5008488;28;20045;-83
2022/04/20 00:22:13;;;;;;;4.82;2.50;;;;;;;;;;5007139;28;20033;-84
2022/04/20 00:24:39;;;;;;;7.78;2.88;;;;;;;;;;5024635;28;20099;-84
2022/04/20 00:27:04;;;;;;;5.57;2.60;;;;;;;;;;5002757;28;20412;-84
2022/04/20 00:29:30;;;;;;;4.15;2.40;;;;;;;;;;5020371;28;20048;-83
2022/04/20 00:31:55;;;;;;;5.60;2.40;;;;;;;;;;5023553;28;20507;-83
2022/04/20 00:34:21;;;;;;;5.80;2.30;;;;;;;;;;5008489;28;20045;-84
2022/04/20 00:36:50;;;;;;;5.28;2.55;;;;;;;;;;5007309;28;20728;-84
2022/04/20 00:39:16;;;;;;;6.30;2.20;;;;;;;;;;5023865;28;20401;-84
2022/04/20 00:41:41;;;;;;;7.82;2.83;;;;;;;;;;5024090;28;20042;-85
2022/04/20 00:44:07;;;;;;;7.85;2.90;;;;;;;;;;5007465;28;20025;-83
2022/04/20 00:46:32;;;;;;;5.93;2.63;;;;;;;;;;5007183;28;20033;-83
2022/04/20 00:48:58;;;;;;;6.30;2.70;;;;;;;;;;5023861;28;20112;-83
2022/04/20 00:51:23;;;;;;;5.50;2.55;;;;;;;;;;5007351;28;20101;-84
2022/04/20 00:53:49;;;;;;;6.57;2.70;;;;;;;;;;5024796;28;20053;-84
2022/04/20 00:56:15;;;;;;;5.47;2.20;;;;;;;;;;5002288;28;20133;-84
2022/04/20 00:58:42;;;;;;;8.45;3.15;;;;;;;;;;5007517;28;20100;-83
2022/04/20 01:01:07;;;;;;;7.22;2.78;;;;;;;;;;5023563;28;20048;-83
2022/04/20 01:03:33;;;;;;;6.65;2.78;;;;;;;;;;5007163;28;20722;-83
2022/04/20 01:05:58;;;;;;;7.70;3.00;;;;;;;;;;5023932;28;20045;-83
2022/04/20 01:08:24;;;;;;;5.03;2.60;;;;;;;;;;5007195;28;20040;-83
2022/04/20 01:10:49;;;;;;;7.97;2.70;;;;;;;;;;5008389;28;20120;-84
2022/04/20 01:13:14;;;;;;;7.10;2.80;;;;;;;;;;5007402;28;20037;-85
2022/04/20 01:15:40;;;;;;;5.35;2.53;;;;;;;;;;5007486;28;20096;-84
2022/04/20 01:18:15;;;;;;;6.00;2.63;;;;;;;;;;5023909;28;20037;-83
2022/04/20 01:20:41;;;;;;;7.38;2.55;;;;;;;;;;5023520;28;20042;-83
2022/04/20 01:23:06;;;;;;;6.82;3.00;;;;;;;;;;5006864;28;20050;-83
2022/04/20 01:25:32;;;;;;;6.60;2.70;;;;;;;;;;5007416;28;20143;-83
2022/04/20 01:27:57;;;;;;;5.63;2.70;;;;;;;;;;5023296;28;20060;-83
2022/04/20 01:30:22;;;;;;;6.18;3.25;;;;;;;;;;5023471;28;20563;-83
2022/04/20 01:32:48;;;;;;;7.60;3.08;;;;;;;;;;5007246;28;20033;-83
2022/04/20 01:35:13;;;;;;;7.38;3.00;;;;;;;;;;5007397;28;20040;-83
2022/04/20 01:37:38;;;;;;;6.43;2.88;;;;;;;;;;5023479;28;20045;-83
2022/04/20 01:40:05;;;;;;;7.57;3.20;;;;;;;;;;5009715;28;20886;-84
2022/04/20 01:42:31;;;;;;;6.50;3.00;;;;;;;;;;5026860;28;20447;-83
2022/04/20 01:44:56;;;;;;;7.50;2.95;;;;;;;;;;5010915;28;20048;-82
2022/04/20 01:47:21;;;;;;;6.07;3.10;;;;;;;;;;5026890;28;20037;-81
2022/04/20 01:49:46;;;;;;;7.95;3.10;;;;;;;;;;5027652;28;20519;-84
2022/04/20 01:52:12;;;;;;;7.88;3.85;;;;;;;;;;5010593;28;20048;-84
2022/04/20 01:54:37;;;;;;;6.72;3.10;;;;;;;;;;5010629;28;20037;-84
2022/04/20 01:57:02;;;;;;;7.40;3.42;;;;;;;;;;5026481;28;20037;-84
2022/04/20 01:59:28;;;;;;;7.55;3.33;;;;;;;;;;5003195;28;20040;-83
2022/04/20 02:04:37;;;;;;;8.70;3.50;;;;;;;;;;5027461;28;20120;-83
2022/04/20 02:07:02;;;;;;;7.13;3.20;;;;;;;;;;5026345;28;20037;-83
2022/04/20 02:09:28;;;;;;;5.65;3.13;;;;;;;;;;5010379;28;20036;-84
2022/04/20 02:11:53;;;;;;;7.10;3.38;;;;;;;;;;5003255;28;20124;-84
2022/04/20 02:14:18;;;;;;;9.20;3.97;;;;;;;;;;5026840;28;20033;-84
2022/04/20 02:16:43;;;;;;;8.63;3.65;;;;;;;;;;5003704;28;20048;-84
2022/04/20 02:19:09;;;;;;;6.18;3.13;;;;;;;;;;5011210;28;20033;-83
2022/04/20 02:21:34;;;;;;;6.30;3.58;;;;;;;;;;5009986;28;20378;-83
2022/04/20 02:23:59;;;;;;;7.80;3.42;;;;;;;;;;5010167;28;20079;-82
2022/04/20 02:26:25;;;;;;;6.38;3.28;;;;;;;;;;5009456;28;20044;-83
2022/04/20 02:28:50;;;;;;;7.10;3.22;;;;;;;;;;5010116;28;20077;-83
2022/04/20 02:31:16;;;;;;;6.93;3.60;;;;;;;;;;5003220;28;20460;-83
2022/04/20 02:33:42;;;;;;;7.95;3.78;;;;;;;;;;5026423;28;20043;-84
2022/04/20 02:36:07;;;;;;;5.40;3.08;;;;;;;;;;5009795;28;20033;-83
2022/04/20 02:38:34;;;;;;;7.75;3.55;;;;;;;;;;5026244;28;20038;-83
2022/04/20 02:40:59;;;;;;;6.97;3.67;;;;;;;;;;5025189;28;20041;-83
2022/04/20 02:43:24;;;;;;;7.18;3.47;;;;;;;;;;5025464;28;20396;-83
2022/04/20 02:45:50;;;;;;;6.57;3.58;;;;;;;;;;5025802;28;20034;-83
2022/04/20 02:48:15;;;;;;;7.57;3.90;;;;;;;;;;5025631;28;20125;-83
2022/04/20 02:50:40;;;;;;;7.57;3.55;;;;;;;;;;5009058;28;20108;-84
2022/04/20 02:53:06;;;;;;;8.52;3.38;;;;;;;;;;5001879;28;20574;-84
2022/04/20 02:55:31;;;;;;;7.40;3.78;;;;;;;;;;5009339;28;20037;-83
2022/04/20 02:57:56;;;;;;;9.07;3.80;;;;;;;;;;5009376;28;20116;-82
2022/04/20 03:00:22;;;;;;;8.07;4.03;;;;;;;;;;5002664;28;20067;-82
2022/04/20 03:02:48;;;;;;;5.90;3.35;;;;;;;;;;5009481;28;20503;-83
2022/04/20 03:05:13;;;;;;;6.93;3.65;;;;;;;;;;5001287;28;20560;-84
2022/04/20 03:07:38;;;;;;;8.75;4.25;;;;;;;;;;5009155;28;20124;-82
2022/04/20 03:10:04;;;;;;;10.20;4.60;;;;;;;;;;5009503;28;20045;-83
2022/04/20 03:12:30;;;;;;;9.68;4.10;;;;;;;;;;5008838;28;20493;-84
2022/04/20 03:14:57;;;;;;;7.65;3.72;;;;;;;;;;5025316;28;20052;-82
2022/04/20 03:17:22;;;;;;;8.38;3.90;;;;;;;;;;5008309;28;20575;-83
2022/04/20 03:19:48;;;;;;;7.35;3.75;;;;;;;;;;5009624;28;20120;-83
2022/04/20 03:22:13;;;;;;;9.38;4.05;;;;;;;;;;5025203;28;20037;-83
2022/04/20 03:24:39;;;;;;;7.78;3.90;;;;;;;;;;5004019;28;20099;-83
2022/04/20 03:27:04;;;;;;;9.00;3.90;;;;;;;;;;5000760;28;20041;-83
2022/04/20 03:29:30;;;;;;;9.38;3.95;;;;;;;;;;5001591;28;20045;-83
2022/04/20 03:31:55;;;;;;;6.22;3.70;;;;;;;;;;5002974;28;20112;-83
2022/04/20 03:34:21;;;;;;;9.73;4.20;;;;;;;;;;5008857;28;20040;-83
2022/04/20 03:36:46;;;;;;;8.68;4.38;;;;;;;;;;5008207;28;20037;-83
2022/04/20 03:39:12;;;;;;;7.40;4.25;;;;;;;;;;5008158;28;20124;-84
2022/04/20 03:41:37;;;;;;;7.57;4.07;;;;;;;;;;5007776;28;20033;-84
2022/04/20 03:44:02;;;;;;;7.68;4.00;;;;;;;;;;5001568;28;20033;-83
2022/04/20 03:46:28;;;;;;;8.27;4.07;;;;;;;;;;5024422;28;20048;-83
2022/04/20 03:48:53;;;;;;;7.68;4.00;;;;;;;;;;5008288;28;20107;-82
2022/04/20 03:51:18;;;;;;;6.88;4.00;;;;;;;;;;5008558;28;20388;-84
2022/04/20 03:53:45;;;;;;;9.27;4.18;;;;;;;;;;5008269;28;20043;-84
2022/04/20 03:56:10;;;;;;;9.50;4.40;;;;;;;;;;5008274;28;20037;-82
2022/04/20 03:58:36;;;;;;;6.70;3.90;;;;;;;;;;5008785;28;20099;-83
2022/04/20 04:01:02;;;;;;;7.30;4.00;;;;;;;;;;5025054;28;20057;-83
2022/04/20 04:03:27;;;;;;;7.90;4.07;;;;;;;;;;5019687;28;20139;-84
2022/04/20 04:05:53;;;;;;;8.43;3.95;;;;;;;;;;5008184;28;20033;-83
2022/04/20 04:08:18;;;;;;;10.38;4.43;;;;;;;;;;4998099;28;20779;-83
2022/04/20 04:10:44;;;;;;;10.35;4.55;;;;;;;;;;5024521;28;20033;-85
2022/04/20 04:13:09;;;;;;;6.78;4.22;;;;;;;;;;5007153;28;20056;-83
2022/04/20 04:15:34;;;;;;;7.95;4.35;;;;;;;;;;5007680;28;20121;-83
2022/04/20 04:18:01;;;;;;;8.02;4.35;;;;;;;;;;5007767;28;20433;-83
2022/04/20 04:20:26;;;;;;;10.57;4.80;;;;;;;;;;5007794;28;20036;-83
2022/04/20 04:22:52;;;;;;;9.10;4.57;;;;;;;;;;5024190;28;20048;-83
2022/04/20 04:25:18;;;;;;;7.07;4.53;;;;;;;;;;5007977;28;20037;-83
2022/04/20 04:27:43;;;;;;;9.15;4.53;;;;;;;;;;5024144;28;20544;-84
2022/04/20 04:30:09;;;;;;;8.50;4.55;;;;;;;;;;5007691;28;20056;-81
2022/04/20 04:32:34;;;;;;;6.80;4.50;;;;;;;;;;5023587;28;20068;-84
2022/04/20 04:35:01;;;;;;;10.00;5.07;;;;;;;;;;5008420;28;20033;-83
2022/04/20 04:37:26;;;;;;;9.32;4.35;;;;;;;;;;5007230;28;20048;-83
2022/04/20 04:39:52;;;;;;;7.60;4.93;;;;;;;;;;5015541;28;20037;-84
2022/04/20 04:42:20;;;;;;;8.50;4.78;;;;;;;;;;5006776;28;20041;-83
2022/04/20 04:44:45;;;;;;;8.15;4.97;;;;;;;;;;5024019;28;20579;-83
2022/04/20 04:49:55;;;;;;;8.90;4.75;;;;;;;;;;5024325;28;20424;-84
2022/04/20 04:52:20;;;;;;;7.45;5.10;;;;;;;;;;5024929;28;20033;-85
2022/04/20 04:54:46;;;;;;;8.93;4.53;;;;;;;;;;5008434;28;20037;-84
2022/04/20 04:57:12;;;;;;;9.25;5.07;;;;;;;;;;5000898;28;20064;-82
2022/04/20 04:59:38;;;;;;;10.10;5.45;;;;;;;;;;5007574;28;20065;-83
2022/04/20 05:02:04;;;;;;;8.43;5.28;;;;;;;;;;5023814;28;20040;-83
2022/04/20 05:04:30;;;;;;;7.72;4.68;;;;;;;;;;5007467;28;20618;-83
2022/04/20 05:06:56;;;;;;;9.63;5.03;;;;;;;;;;5006480;28;20044;-82
2022/04/20 05:09:22;;;;;;;9.55;4.90;;;;;;;;;;5014487;28;20033;-82
2022/04/20 05:11:48;;;;;;;11.00;5.07;;;;;;;;;;5007257;28;20060;-83
2022/04/20 05:14:16;;;;;;;9.30;4.95;;;;;;;;;;5024902;28;20042;-83
2022/04/20 05:16:42;;;;;;;7.65;5.07;;;;;;;;;;5006329;28;21483;-83
2022/04/20 05:19:08;;;;;;;7.97;5.20;;;;;;;;;;5011407;28;20084;-83
2022/04/20 05:21:34;;;;;;;7.47;4.80;;;;;;;;;;5010700;28;20082;-82
2022/04/20 05:23:59;;;;;;;8.57;5.00;;;;;;;;;;5011247;28;20033;-82
2022/04/20 05:26:25;;;;;;;8.27;4.80;;;;;;;;;;5010304;28;20465;-83
2022/04/20 05:28:51;;;;;;;7.60;4.97;;;;;;;;;;5027863;28;20094;-83
2022/04/20 05:31:17;;;;;;;8.10;4.97;;;;;;;;;;5027107;28;20408;-82
2022/04/20 05:33:42;;;;;;;8.48;4.47;;;;;;;;;;5000226;28;20045;-84
2022/04/20 05:36:08;;;;;;;8.75;5.00;;;;;;;;;;5010840;28;20072;-81
2022/04/20 05:44:01;;;;;;;6.45;4.35;;;;;;;;;;5028501;28;20550;-83
2022/04/20 05:46:26;;;;;;;9.50;5.05;;;;;;;;;;5010714;28;20046;-83
2022/04/20 05:48:51;;;;;;;8.23;4.35;;;;;;;;;;5027477;28;20072;-83
2022/04/20 05:51:17;;;;;;;8.27;5.10;;;;;;;;;;5000075;28;20037;-83
2022/04/20 05:53:42;;;;;;;9.50;5.30;;;;;;;;;;5027093;28;20448;-85
2022/04/20 05:56:07;;;;;;;8.43;4.47;;;;;;;;;;5009914;28;20041;-84
2022/04/20 05:58:35;;;;;;;9.48;4.60;;;;;;;;;;5010043;28;20421;-84
2022/04/20 06:01:00;;;;;;;7.78;4.85;;;;;;;;;;5010398;28;20040;-84
2022/04/20 06:03:26;;;;;;;8.52;4.40;;;;;;;;;;5009723;28;20033;-84
2022/04/20 06:05:51;;;;;;;7.15;4.57;;;;;;;;;;5027318;28;20041;-84
2022/04/20 06:08:16;;;;;;;9.57;4.50;;;;;;;;;;5010070;28;20516;-83
2022/04/20 06:10:46;;;;;;;9.77;4.97;;;;;;;;;;4993701;28;20041;-84
2022/04/20 06:13:11;;;;;;;7.45;4.60;;;;;;;;;;5026191;28;20037;-84
2022/04/20 06:15:36;;;;;;;8.18;4.82;;;;;;;;;;5010457;28;20033;-84
2022/04/20 06:18:02;;;;;;;7.45;4.90;;;;;;;;;;5009311;28;20069;-84
2022/04/20 06:20:27;;;;;;;6.78;4.30;;;;;;;;;;5009514;28;20037;-83
2022/04/20 06:22:52;;;;;;;8.88;4.55;;;;;;;;;;5009969;28;20112;-82
2022/04/20 06:25:18;;;;;;;7.20;4.60;;;;;;;;;;5025760;28;20050;-84
2022/04/20 06:27:43;;;;;;;7.97;4.53;;;;;;;;;;5008603;28;20041;-83
2022/04/20 06:30:09;;;;;;;7.93;4.72;;;;;;;;;;4999927;28;20049;-84
2022/04/20 06:32:36;;;;;;;7.88;4.57;;;;;;;;;;5004956;28;20034;-83
2022/04/20 06:35:02;;;;;;;8.23;4.33;;;;;;;;;;5003781;28;20833;-83
2022/04/20 06:37:27;;;;;;;8.32;4.53;;;;;;;;;;5025677;28;20276;-83
2022/04/20 06:39:54;;;;;;;8.43;5.10;;;;;;;;;;5010108;28;20034;-85
2022/04/20 06:42:19;;;;;;;8.30;4.72;;;;;;;;;;5025566;28;20065;-84
2022/04/20 06:44:45;;;;;;;8.85;4.55;;;;;;;;;;5004999;28;20088;-84
2022/04/20 06:47:10;;;;;;;9.35;4.65;;;;;;;;;;5002882;28;20556;-84
2022/04/20 06:49:35;;;;;;;6.97;4.50;;;;;;;;;;5009795;28;20087;-85
2022/04/20 07:00:15;;;;;;;7.53;4.28;;;;;;;;;;5025428;28;20044;-83
2022/04/20 07:02:42;;;;;;;;;;;;;;;;;;5009821;28;20038;-83
2022/04/20 07:05:09;;;;;;;7.90;4.28;;;;;;;;;;5025553;28;19932;-85
2022/04/20 07:07:34;;;;;;;6.93;4.68;;;;;;;;;;5008917;28;20049;-84
2022/04/20 07:10:02;;;;;;;7.85;4.50;;;;;;;;;;5008995;28;20393;-84
2022/04/20 07:12:27;;;;;;;6.95;4.00;;;;;;;;;;5008690;28;20051;-84
2022/04/20 07:14:53;;;;;;;7.75;4.40;;;;;;;;;;5009161;28;20037;-84
2022/04/20 07:17:18;;;;;;;7.25;4.18;;;;;;;;;;5008980;28;20090;-83
2022/04/20 07:19:43;;;;;;;7.78;4.07;;;;;;;;;;5015922;28;20481;-84
2022/04/20 07:22:09;;;;;;;6.28;4.03;;;;;;;;;;5008975;28;20034;-83
2022/04/20 07:24:34;;;;;;;5.90;3.60;;;;;;;;;;5009369;28;20038;-83
2022/04/20 07:26:59;;;;;;;6.43;3.85;;;;;;;;;;5008964;28;20041;-83
2022/04/20 07:29:25;;;;;;;6.15;3.55;;;;;;;;;;5008831;28;20511;-84
2022/04/20 07:31:50;;;;;;;5.78;3.80;;;;;;;;;;5008848;28;20033;-83
2022/04/20 07:34:15;;;;;;;5.57;3.45;;;;;;;;;;4991572;28;20412;-84
2022/04/20 07:36:41;;;;;;;7.78;4.00;;;;;;;;;;5023763;28;20079;-84
2022/04/20 07:39:08;;;;;;;7.25;3.90;;;;;;;;;;5001328;28;20429;-84
2022/04/20 07:41:34;;;;;;;;;;;;;;;;;;5024845;28;20060;-84
2022/04/20 07:43:59;;;;;;;6.30;3.73;;;;;;;;;;5009057;28;19909;-83
2022/04/20 07:46:24;;;;;;;6.88;3.92;;;;;;;;;;5003290;28;20280;-82
2022/04/20 07:48:49;;;;;;;8.32;4.10;;;;;;;;;;5008812;28;20037;-84
2022/04/20 07:51:17;;;;;;;6.85;3.58;;;;;;;;;;5008049;28;20037;-84
2022/04/20 07:53:42;;;;;;;6.47;3.67;;;;;;;;;;5024768;28;20524;-83
2022/04/20 07:56:08;;;;;;;7.43;3.55;;;;;;;;;;5008138;28;20134;-83
2022/04/20 07:58:33;;;;;;;6.65;3.67;;;;;;;;;;5009081;28;20112;-83
2022/04/20 08:00:58;;;;;;;8.05;3.95;;;;;;;;;;5007990;28;20128;-82
2022/04/20 08:03:24;;;;;;;7.88;4.03;;;;;;;;;;5008242;28;20435;-83
2022/04/20 08:05:51;;;;;;;6.05;3.08;;;;;;;;;;5024784;28;20041;-83
2022/04/20 08:08:17;;;;;;;5.68;3.20;;;;;;;;;;5002885;28;20037;-83
2022/04/20 08:10:43;;;;;;;7.68;3.17;;;;;;;;;;5024958;28;21206;-84
2022/04/20 08:16:03;;;;;;;6.05;3.17;;;;;;;;;;5011892;28;20044;-84
2022/04/20 08:18:28;;;;;;;6.00;2.90;;;;;;;;;;5007877;28;20428;-83
2022/04/20 08:20:54;;;;;;;5.22;2.95;;;;;;;;;;5003737;28;20480;-83
2022/04/20 08:23:19;;;;;;;6.70;3.00;;;;;;;;;;5007641;28;20041;-83
2022/04/20 08:25:45;;;;;;;5.90;2.90;;;;;;;;;;5007705;28;20049;-83
2022/04/20 08:28:12;;;;;;;8.70;4.68;;;;;;;;;;5007488;28;20029;-84
2022/04/20 08:30:38;;;;;;;5.93;2.85;;;;;;;;;;5001841;28;20041;-84
2022/04/20 08:33:07;;;;;;;5.10;2.47;;;;;;;;;;5001606;28;20044;-84
2022/04/20 08:35:36;;;;;;;5.00;2.60;;;;;;;;;;5039480;28;20029;-83
2022/04/20 08:38:02;;;;;;;4.75;2.50;;;;;;;;;;5023141;28;20603;-84
2022/04/20 08:40:28;;;;;;;4.65;2.60;;;;;;;;;;5024042;28;20029;-84
2022/04/20 08:42:54;;;;;;;6.05;2.40;;;;;;;;;;5023608;28;20551;-84
2022/04/20 08:45:20;;;;;;;5.88;2.42;;;;;;;;;;5007325;28;20033;-83
2022/04/20 08:47:47;;;;;;;5.88;2.30;;;;;;;;;;5023781;28;20480;-83
2022/04/20 08:50:12;;;;;;;4.70;1.98;;;;;;;;;;5019593;28;20038;-82
2022/04/20 08:52:37;;;;;;;5.53;2.28;;;;;;;;;;5002130;28;20386;-85
2022/04/20 08:55:19;;;;;;;4.85;1.85;;;;;;;;;;5007741;28;20493;-83
2022/04/20 08:57:48;;;;;;;6.68;2.90;;;;;;;;;;5023548;28;20091;-85
2022/04/20 09:00:20;;;;;;;4.65;2.22;;;;;;;;;;5013579;28;20111;-84
2022/04/20 09:02:47;;;;;;;4.68;2.20;;;;;;;;;;4999611;28;20029;-84
2022/04/20 09:05:12;;;;;;;8.00;2.08;;;;;;;;;;5007130;28;20103;-83
2022/04/20 09:07:37;;;;;;;4.18;1.80;;;;;;;;;;5023798;28;20060;-84
2022/04/20 09:10:03;;;;;;;7.60;2.05;;;;;;;;;;5024396;28;20041;-84
2022/04/20 09:12:29;;;;;;;7.45;2.20;;;;;;;;;;5007477;28;20446;-85
2022/04/20 09:14:56;;;;;;;5.95;2.40;;;;;;;;;;5024449;28;20080;-84
2022/04/20 09:17:26;;;;;;;4.33;2.17;;;;;;;;;;5023365;28;20447;-85
2022/04/20 09:19:54;;;;;;;5.45;2.00;;;;;;;;;;5033084;28;20037;-85
2022/04/20 09:22:32;;;;;;;4.18;1.92;;;;;;;;;;5006950;28;20592;-84
2022/04/20 09:24:57;;;;;;;5.78;2.25;;;;;;;;;;5024033;28;20034;-84
2022/04/20 09:27:23;;;;;;;4.40;2.10;;;;;;;;;;5023650;28;20041;-83
2022/04/20 09:29:55;;;;;;;6.22;2.03;;;;;;;;;;4999605;28;20526;-84
2022/04/20 09:32:38;;;;;;;6.05;2.10;;;;;;;;;;5006982;28;20396;-85
2022/04/20 09:35:06;;;;;;;5.72;2.22;;;;;;;;;;5023817;28;20479;-84
2022/04/20 09:37:33;;;;;;;5.15;2.38;;;;;;;;;;5040178;28;20060;-83
2022/04/20 09:39:58;;;;;;;7.50;2.60;;;;;;;;;;5007720;28;20043;-82
2022/04/20 09:42:24;;;;;;;4.30;2.15;;;;;;;;;;5006824;28;20041;-82
2022/04/20 09:44:59;;;;;;;6.68;2.53;;;;;;;;;;5007890;28;20116;-83
2022/04/20 09:50:13;;;;;;;5.18;2.05;;;;;;;;;;5024250;28;20115;-84
2022/04/20 09:52:41;;;;;;;4.55;2.10;;;;;;;;;;5006519;28;20052;-84
2022/04/20 09:55:06;;;;;;;;;;;;;;;;;;5007431;28;20037;-84
2022/04/20 09:57:34;;;;;;;5.47;2.50;;;;;;;;;;5006708;28;19920;-84
2022/04/20 10:00:15;;;;;;;4.82;2.22;;;;;;;;;;5023608;28;20044;-83
2022/04/20 10:02:46;;;;;;;5.57;2.38;;;;;;;;;;5010232;28;20038;-84
2022/04/20 10:05:12;;;;;;;5.65;2.28;;;;;;;;;;5017533;28;20040;-85
2022/04/20 10:07:38;;;;;;;10.75;2.92;;;;;;;;;;5010127;28;20029;-84
2022/04/20 10:10:04;;;;;;;5.53;2.30;;;;;;;;;;5010287;28;20045;-83
2022/04/20 10:12:31;;;;;;;5.03;2.50;;;;;;;;;;5010205;28;20033;-85
2022/04/20 10:17:44;;;;;;;6.40;2.75;;;;;;;;;;5016969;28;20358;-85
2022/04/20 10:20:11;;;;;;;8.93;2.65;;;;;;;;;;5009943;28;20025;-84
2022/04/20 10:22:37;;;;;;;3.97;2.20;;;;;;;;;;5010047;28;20773;-85
2022/04/20 10:25:05;;;;;;;5.50;2.00;;;;;;;;;;5025802;28;20495;-84
2022/04/20 10:27:58;;;;;;;5.22;2.30;;;;;;;;;;5009294;28;20030;-85
2022/04/20 10:30:42;;;;;;;8.00;2.33;;;;;;;;;;5026160;28;20430;-86
2022/04/20 10:33:19;;;;;;;5.55;2.17;;;;;;;;;;5024704;28;20548;-84
2022/04/20 10:35:54;;;;;;;3.83;1.90;;;;;;;;;;5026733;28;20030;-84
2022/04/20 10:38:20;;;;;;;5.35;2.20;;;;;;;;;;5026147;28;20038;-85
2022/04/20 10:40:59;;;;;;;4.13;2.03;;;;;;;;;;5026322;28;20036;-85
2022/04/20 10:43:26;;;;;;;5.53;2.30;;;;;;;;;;5025801;28;20037;-84
2022/04/20 10:46:08;;;;;;;5.47;2.30;;;;;;;;;;5026089;28;20042;-84
2022/04/20 10:48:58;;;;;;;4.75;2.25;;;;;;;;;;5025721;28;20038;-85
2022/04/20 10:51:30;;;;;;;5.97;2.30;;;;;;;;;;5000293;28;20115;-83
2022/04/20 10:54:21;;;;;;;4.22;2.00;;;;;;;;;;5026234;28;20433;-84
2022/04/20 10:56:48;;;;;;;4.53;2.00;;;;;;;;;;5041636;28;20408;-85
2022/04/20 10:59:13;;;;;;;4.55;1.58;;;;;;;;;;5000176;28;20037;-84
2022/04/20 11:02:03;;;;;;;4.72;2.05;;;;;;;;;;5003738;28;20538;-84
2022/04/20 11:04:46;;;;;;;3.65;1.90;;;;;;;;;;5027040;28;20056;-83
2022/04/20 11:07:32;;;;;;;4.00;1.83;;;;;;;;;;5024969;28;20041;-82
2022/04/20 11:10:02;;;;;;;4.72;2.00;;;;;;;;;;5025730;28;20091;-84
2022/04/20 11:18:39;;;;;;;4.03;1.88;;;;;;;;;;5026198;28;20043;-84
2022/04/20 11:21:05;;;;;;;4.65;2.13;;;;;;;;;;5024628;28;20479;-82
2022/04/20 11:24:15;;;;;;;4.60;2.20;;;;;;;;;;5025582;28;20048;-83
2022/04/20 11:26:48;;;;;;;4.65;2.10;;;;;;;;;;5021882;28;20378;-83
2022/04/20 11:29:15;;;;;;;5.47;2.30;;;;;;;;;;5008199;28;20048;-84
2022/04/20 11:31:48;;;;;;;3.97;2.17;;;;;;;;;;5025001;28;20033;-84
2022/04/20 11:34:17;;;;;;;4.70;2.08;;;;;;;;;;5025152;28;20041;-84
2022/04/20 11:36:46;;;;;;;4.50;2.20;;;;;;;;;;5008652;28;20033;-84
2022/04/20 11:39:12;;;;;;;5.00;1.83;;;;;;;;;;4998808;28;20374;-84
2022/04/20 11:41:43;;;;;;;4.05;2.20;;;;;;;;;;5024517;28;20038;-84
2022/04/20 11:44:31;;;;;;;4.47;1.95;;;;;;;;;;5008074;28;20061;-85
2022/04/20 11:47:01;;;;;;;4.63;1.95;;;;;;;;;;5015211;28;20037;-84
2022/04/20 11:49:48;;;;;;;4.90;2.00;;;;;;;;;;5041833;28;20041;-85
2022/04/20 11:52:17;;;;;;;4.40;1.90;;;;;;;;;;5024845;28;20044;-85
2022/04/20 11:54:47;;;;;;;4.47;2.05;;;;;;;;;;5024824;28;20492;-86
2022/04/20 11:57:15;;;;;;;4.82;2.20;;;;;;;;;;5015345;28;20037;-87
2022/04/20 11:59:47;;;;;;;5.43;1.83;;;;;;;;;;5008406;28;20041;-85
2022/04/20 12:02:14;;;;;;;4.70;1.83;;;;;;;;;;5008040;28;20389;-84
2022/04/20 12:04:39;;;;;;;4.68;1.80;;;;;;;;;;5024656;28;20051;-83
2022/04/20 12:07:08;;;;;;;5.80;2.28;;;;;;;;;;5007967;28;20457;-84
2022/04/20 12:09:36;;;;;;;5.25;1.90;;;;;;;;;;5008470;28;20204;-84
2022/04/20 12:12:12;;;;;;;4.05;1.80;;;;;;;;;;5012894;28;20033;-85
2022/04/20 12:14:39;;;;;;;5.97;1.90;;;;;;;;;;5024982;28;20045;-86
2022/04/20 12:17:16;;;;;;;4.68;2.17;;;;;;;;;;5024900;28;20947;-84
2022/04/20 12:19:42;;;;;;;5.17;2.03;;;;;;;;;;5007884;28;20075;-85
2022/04/20 12:22:07;;;;;;;4.88;1.90;;;;;;;;;;5024361;28;20304;-83
2022/04/20 12:24:33;;;;;;;4.82;1.88;;;;;;;;;;5004672;28;20034;-83
2022/04/20 12:26:59;;;;;;;6.47;2.28;;;;;;;;;;5002082;28;20040;-83
2022/04/20 12:29:27;;;;;;;4.43;1.90;;;;;;;;;;4996591;28;20511;-82
2022/04/20 12:31:56;;;;;;;3.53;1.80;;;;;;;;;;5013509;28;20037;-84
2022/04/20 12:34:24;;;;;;;5.47;1.80;;;;;;;;;;5001903;28;20064;-84
2022/04/20 12:37:08;;;;;;;4.13;1.70;;;;;;;;;;5000686;28;20071;-85
2022/04/20 12:39:45;;;;;;;4.53;2.10;;;;;;;;;;5008191;28;20574;-84
2022/04/20 12:42:14;;;;;;;3.70;1.80;;;;;;;;;;5001048;28;20036;-83
2022/04/20 12:44:46;;;;;;;6.88;2.17;;;;;;;;;;5020628;28;20045;-85
2022/04/20 12:47:12;;;;;;;6.18;1.92;;;;;;;;;;5006875;28;20485;-83
2022/04/20 12:49:41;;;;;;;3.77;1.83;;;;;;;;;;5024043;28;20081;-85
2022/04/20 12:52:14;;;;;;;4.68;2.00;;;;;;;;;;5006863;28;20276;-84
2022/04/20 12:54:41;;;;;;;4.50;2.10;;;;;;;;;;4996636;28;20531;-87
2022/04/20 13:03:10;;;;;;;5.00;2.13;;;;;;;;;;5024040;28;20110;-84
2022/04/20 13:05:38;;;;;;;3.65;1.90;;;;;;;;;;4999515;28;20041;-84
2022/04/20 13:08:04;;;;;;;5.30;2.35;;;;;;;;;;5007333;28;20033;-84
2022/04/20 13:10:29;;;;;;;5.30;1.92;;;;;;;;;;5023722;28;20327;-84
2022/04/20 13:12:55;;;;;;;6.18;1.80;;;;;;;;;;5006951;28;20044;-84
2022/04/20 13:15:22;;;;;;;4.68;2.25;;;;;;;;;;5008289;28;20037;-84
2022/04/20 13:17:48;;;;;;;5.43;1.90;;;;;;;;;;5022844;28;20091;-84
2022/04/20 13:20:14;;;;;;;4.93;1.90;;;;;;;;;;5024327;28;20148;-83
2022/04/20 13:22:40;;;;;;;4.95;1.90;;;;;;;;;;5023473;28;20037;-84
2022/04/20 13:27:56;;;;;;;6.05;2.40;;;;;;;;;;5023886;28;20511;-83
2022/04/20 13:30:35;;;;;;;4.85;2.00;;;;;;;;;;5007989;28;20041;-83
2022/04/20 13:33:01;;;;;;;4.20;2.10;;;;;;;;;;5023179;28;20084;-84
2022/04/20 13:35:27;;;;;;;3.50;1.85;;;;;;;;;;5009100;28;20489;-85
2022/04/20 13:37:52;;;;;;;4.50;2.20;;;;;;;;;;5011252;28;20033;-83
2022/04/20 13:40:18;;;;;;;4.50;2.25;;;;;;;;;;5010650;28;20053;-83
2022/04/20 13:42:43;;;;;;;5.88;2.20;;;;;;;;;;5005931;28;20052;-84
2022/04/20 13:45:08;;;;;;;5.40;1.90;;;;;;;;;;5003815;28;20033;-83
2022/04/20 13:47:34;;;;;;;5.45;2.33;;;;;;;;;;5026133;28;20037;-84
2022/04/20 13:50:02;;;;;;;5.55;2.08;;;;;;;;;;5010647;28;20033;-84
2022/04/20 13:52:28;;;;;;;4.45;2.00;;;;;;;;;;5027060;28;20481;-85
2022/04/20 13:54:53;;;;;;;6.18;2.03;;;;;;;;;;5023811;28;20044;-84
2022/04/20 13:57:22;;;;;;;3.90;2.10;;;;;;;;;;5028104;28;20397;-84
2022/04/20 13:59:47;;;;;;;4.10;1.80;;;;;;;;;;5026339;28;20052;-83
2022/04/20 14:02:13;;;;;;;3.88;1.80;;;;;;;;;;5009638;28;20038;-84
2022/04/20 14:04:39;;;;;;;6.80;2.35;;;;;;;;;;5026984;28;20095;-84
2022/04/20 14:07:04;;;;;;;7.78;2.03;;;;;;;;;;5018051;28;20041;-83
2022/04/20 14:09:30;;;;;;;3.70;1.90;;;;;;;;;;5026947;28;20119;-84
2022/04/20 14:11:58;;;;;;;5.60;2.10;;;;;;;;;;5009984;28;20041;-85
2022/04/20 14:14:24;;;;;;;4.43;1.85;;;;;;;;;;5027313;28;20034;-84
2022/04/20 14:16:49;;;;;;;6.60;1.92;;;;;;;;;;5009717;28;20443;-85
2022/04/20 14:19:14;;;;;;;5.85;1.75;;;;;;;;;;5004772;28;20037;-85
2022/04/20 14:21:40;;;;;;;6.43;2.13;;;;;;;;;;5009954;28;20124;-84
2022/04/20 14:24:06;;;;;;;4.22;2.00;;;;;;;;;;5010221;28;20037;-84
2022/04/20 14:32:12;;;;;;;5.05;2.10;;;;;;;;;;5025985;28;20036;-84
2022/04/20 14:34:42;;;;;;;4.75;2.10;;;;;;;;;;5011689;28;20044;-83
2022/04/20 14:37:07;;;;;;;6.88;1.85;;;;;;;;;;5025804;28;20038;-84
2022/04/20 14:39:34;;;;;;;4.55;2.10;;;;;;;;;;5010135;28;20943;-83
2022/04/20 14:41:59;;;;;;;5.03;1.90;;;;;;;;;;5010123;28;20386;-84
2022/04/20 14:44:26;;;;;;;4.45;2.10;;;;;;;;;;5003207;28;20037;-84
2022/04/20 14:46:52;;;;;;;6.47;2.10;;;;;;;;;;5005422;28;20113;-84
2022/04/20 14:49:17;;;;;;;7.75;2.15;;;;;;;;;;5009891;28;20377;-85
2022/04/20 14:51:44;;;;;;;6.15;2.00;;;;;;;;;;5009573;28;20041;-84
2022/04/20 14:54:10;;;;;;;4.03;2.03;;;;;;;;;;5009739;28;20031;-84
2022/04/20 14:56:35;;;;;;;5.05;1.83;;;;;;;;;;5008433;28;20384;-84
2022/04/20 14:59:01;;;;;;;6.80;1.85;;;;;;;;;;5009421;28;20040;-84
2022/04/20 15:01:26;;;;;;;4.72;1.80;;;;;;;;;;5025903;28;20108;-83
2022/04/20 15:03:52;;;;;;;3.88;1.80;;;;;;;;;;5009996;28;20061;-83
2022/04/20 15:06:17;;;;;;;5.03;1.60;;;;;;;;;;5015882;28;20041;-84
2022/04/20 15:08:43;;;;;;;5.25;1.90;;;;;;;;;;5009408;28;20048;-83
2022/04/20 15:11:09;;;;;;;4.18;1.50;;;;;;;;;;5025593;28;20048;-85
2022/04/20 15:13:35;;;;;;;4.90;1.90;;;;;;;;;;5009164;28;20041;-86
2022/04/20 15:16:00;;;;;;;3.63;1.88;;;;;;;;;;5002559;28;20042;-85
2022/04/20 15:18:28;;;;;;;4.22;1.75;;;;;;;;;;5009716;28;20041;-84
2022/04/20 15:20:54;;;;;;;5.55;2.00;;;;;;;;;;5009106;28;20030;-85
2022/04/20 15:23:20;;;;;;;4.50;1.80;;;;;;;;;;5024996;28;20038;-84
2022/04/20 15:25:45;;;;;;;4.65;1.50;;;;;;;;;;5025856;28;20046;-85
2022/04/20 15:28:11;;;;;;;6.20;1.63;;;;;;;;;;5001373;28;20102;-85
2022/04/20 15:30:38;;;;;;;5.80;1.60;;;;;;;;;;5002510;28;20492;-86